LiveATC.Net - Listen to live air traffic control over the Internet!


ICAO: LFSB  IATA: BSL   Airport: EuroAirport Basel-Mulhouse-Freiburg
City: Basel
Country: Switzerland   Continent: Europe
LFSB METAR Weather: LFSB 170130Z AUTO 18006KT CAVOK 11/09 Q1025 NOSIG
LFSB Flight Activity (FlightAware)
LFSB Webcam:  (Airport Webcams) 
LFSB Tower
Feed Status: UP   Listeners: 0
Listen right in your browser - requires Flash (in browser, requires Flash)
Click here to listen with your own player (launches your MP3 player)
LFSB Tower Audio Archives
FacilityFrequency
Mulhouse Tower118.300


NOTICE

Unauthorized use prohibited. See LiveATC.net Terms of Service


Find LiveATC Audio Streams


Airport/ARTCC Code

Frequency Search
(e.g., 124.400, 128.75)
Site-wide search
 


Browse LiveATC Feeds
LiveATC Coverage Map
Top 50 LiveATC Feeds
Bad Weather Areas

LiveATC FAQ
Offer a LiveATC Feed
Contact LiveATC.net
Press Inquiries

LiveATC on iPhone
LiveATC on Android

Windows Phone
Windows 8/10

LiveATC Mobile
(Mobile browser)

ATC Audio Archives
Interesting Recordings

LiveATC Forums


Home Page
About LiveATC.net
Make a Donation
LiveATC Store

Terms of Use
Privacy Policy

Canadian Air Freqs

AIRMETs/SIGMETs

FAA Airport Status
Nat'l Airspace Status
Arrival Demand Charts


Server Software By:
Icecast.org
Liquidsoap